createdAt,value
2023-04-12T00:01:38.625Z,35.72
2023-04-12T00:04:42.470Z,35.86
2023-04-12T00:07:47.133Z,35.94
2023-04-12T00:10:50.230Z,35.60
2023-04-12T00:13:55.001Z,35.82
2023-04-12T00:16:58.254Z,35.91
2023-04-12T00:20:01.351Z,35.69
2023-04-12T00:23:04.503Z,36.08
2023-04-12T00:26:08.179Z,35.95
2023-04-12T00:29:12.771Z,35.89
2023-04-12T00:32:15.963Z,35.90
2023-04-12T00:35:19.344Z,35.70
2023-04-12T00:38:22.498Z,35.74
2023-04-12T00:41:27.323Z,35.81
2023-04-12T00:44:32.932Z,35.77
2023-04-12T00:47:37.918Z,36.05
2023-04-12T00:50:44.704Z,35.70
2023-04-12T00:53:47.933Z,35.71
2023-04-12T00:56:51.084Z,35.72
2023-04-12T00:59:55.704Z,35.74
2023-04-12T01:03:02.534Z,35.76
2023-04-12T01:06:15.104Z,35.90
2023-04-12T01:09:30.366Z,35.70
2023-04-12T01:12:48.006Z,35.66
2023-04-12T01:15:59.987Z,35.71
2023-04-12T01:19:12.277Z,35.76
2023-04-12T01:22:38.623Z,35.66
2023-04-12T01:25:53.925Z,35.72
2023-04-12T01:28:59.304Z,35.58
2023-04-12T01:32:04.981Z,35.83
2023-04-12T01:35:09.194Z,35.33
2023-04-12T01:38:12.527Z,35.64
2023-04-12T01:41:16.423Z,35.76
2023-04-12T01:44:21.339Z,35.84
2023-04-12T01:47:24.481Z,35.81
2023-04-12T01:50:37.061Z,35.81
2023-04-12T01:53:50.063Z,35.83
2023-04-12T01:56:58.103Z,35.84
2023-04-12T02:00:06.666Z,35.56
2023-04-12T02:03:12.502Z,35.69
2023-04-12T02:06:15.845Z,35.36
2023-04-12T02:09:19.045Z,35.53
2023-04-12T02:12:23.910Z,35.61
2023-04-12T02:15:28.985Z,35.70
2023-04-12T02:18:32.233Z,35.80
2023-04-12T02:21:41.337Z,35.55
2023-04-12T02:24:44.477Z,35.74
2023-04-12T02:27:48.744Z,35.64
2023-04-12T02:30:54.174Z,35.67
2023-04-12T02:33:57.527Z,35.75
2023-04-12T02:37:00.979Z,35.69
2023-04-12T02:40:06.144Z,35.64
2023-04-12T02:43:09.484Z,35.69
2023-04-12T02:46:17.993Z,35.68
2023-04-12T02:49:21.129Z,35.82
2023-04-12T02:52:24.478Z,35.75
2023-04-12T02:55:27.494Z,35.96
2023-04-12T02:58:30.608Z,35.91
2023-04-12T03:01:35.208Z,35.85
2023-04-12T03:04:40.119Z,35.72
2023-04-12T03:07:43.633Z,35.81
2023-04-12T03:10:46.714Z,35.78
2023-04-12T03:13:49.770Z,35.79
2023-04-12T03:16:54.152Z,36.82
2023-04-12T03:19:58.140Z,36.93
2023-04-12T03:23:01.668Z,37.80
2023-04-12T03:26:04.868Z,37.97
2023-04-12T03:29:10.108Z,37.90
2023-04-12T03:32:15.902Z,38.33
2023-04-12T03:35:19.168Z,38.35
2023-04-12T03:38:23.500Z,38.72
2023-04-12T03:41:26.891Z,39.18
2023-04-12T03:44:29.964Z,38.46
2023-04-12T03:47:34.471Z,38.28
2023-04-12T03:50:44.805Z,38.32
2023-04-12T03:53:47.886Z,38.26
2023-04-12T03:56:50.927Z,38.48
2023-04-12T03:59:54.043Z,38.24
2023-04-12T04:02:58.768Z,38.22
2023-04-12T04:06:02.143Z,37.72
2023-04-12T04:09:05.721Z,36.98
2023-04-12T04:12:09.037Z,36.50
2023-04-12T04:15:12.935Z,36.67
2023-04-12T04:18:17.361Z,37.32
2023-04-12T04:21:22.443Z,37.21
2023-04-12T04:24:26.181Z,37.62
2023-04-12T04:27:30.780Z,37.79
2023-04-12T04:30:34.471Z,37.70
2023-04-12T04:33:39.495Z,37.42
2023-04-12T04:36:42.767Z,37.49
2023-04-12T04:39:45.793Z,37.51
2023-04-12T04:42:54.549Z,37.20
2023-04-12T04:45:58.428Z,37.46
2023-04-12T04:49:02.856Z,37.30
2023-04-12T04:52:07.309Z,37.38
2023-04-12T04:55:11.716Z,37.34
2023-04-12T04:58:14.950Z,37.49
2023-04-12T05:01:18.094Z,37.19
2023-04-12T05:04:22.668Z,37.67
2023-04-12T05:07:26.259Z,37.41
2023-04-12T05:10:29.333Z,37.36
2023-04-12T05:13:32.411Z,37.17
2023-04-12T05:16:35.575Z,37.28
2023-04-12T05:19:40.630Z,37.36
2023-04-12T05:22:44.312Z,37.08
2023-04-12T05:25:48.430Z,37.10
2023-04-12T05:28:51.616Z,37.16
2023-04-12T05:31:54.634Z,37.02
2023-04-12T05:34:59.032Z,37.10
2023-04-12T05:38:02.049Z,36.93
2023-04-12T05:41:05.832Z,37.14
2023-04-12T05:44:08.871Z,37.17
2023-04-12T05:47:12.257Z,37.12
2023-04-12T05:50:16.964Z,37.04
2023-04-12T05:53:20.020Z,37.32
2023-04-12T05:56:23.019Z,36.98
2023-04-12T05:59:26.052Z,37.19
2023-04-12T06:02:29.264Z,37.21
2023-04-12T06:05:35.350Z,37.02
2023-04-12T06:08:39.543Z,37.02
2023-04-12T06:11:42.609Z,37.17
2023-04-12T06:14:45.602Z,37.29
2023-04-12T06:17:48.804Z,37.08
2023-04-12T06:20:53.349Z,37.08
2023-04-12T06:23:56.429Z,37.06
2023-04-12T06:26:59.500Z,37.55
2023-04-12T06:30:02.613Z,37.54
2023-04-12T06:33:05.722Z,37.50
2023-04-12T06:36:11.556Z,37.44
2023-04-12T06:39:16.427Z,37.44
2023-04-12T06:42:19.690Z,37.56
2023-04-12T06:45:22.970Z,37.23
2023-04-12T06:48:26.269Z,37.62
2023-04-12T06:51:31.029Z,37.58
2023-04-12T06:54:34.491Z,37.35
2023-04-12T06:57:37.671Z,37.93
2023-04-12T07:00:41.015Z,37.41
2023-04-12T07:03:44.109Z,36.99
2023-04-12T07:06:48.558Z,37.09
2023-04-12T07:09:52.361Z,37.22
2023-04-12T07:12:55.459Z,37.08
2023-04-12T07:16:00.850Z,36.82
2023-04-12T07:19:03.914Z,37.00
2023-04-12T07:22:08.613Z,37.22
2023-04-12T07:25:11.838Z,36.92
2023-04-12T07:28:14.878Z,37.01
2023-04-12T07:31:17.944Z,36.88
2023-04-12T07:34:21.355Z,36.87
2023-04-12T07:37:26.183Z,36.81
2023-04-12T07:40:29.533Z,36.86
2023-04-12T07:43:32.851Z,36.64
2023-04-12T07:46:36.091Z,36.63
2023-04-12T07:49:39.396Z,36.60
2023-04-12T07:52:43.834Z,36.54
2023-04-12T07:55:47.198Z,36.31
2023-04-12T07:58:50.268Z,36.21
2023-04-12T08:01:53.347Z,36.39
2023-04-12T08:04:56.437Z,36.70
2023-04-12T08:08:00.894Z,36.54
2023-04-12T08:11:06.257Z,36.46
2023-04-12T08:14:10.495Z,36.27
2023-04-12T08:17:13.639Z,36.50
2023-04-12T08:20:16.754Z,36.63
2023-04-12T08:23:21.435Z,36.43
2023-04-12T08:26:26.634Z,36.32
2023-04-12T08:29:29.724Z,36.28
2023-04-12T08:32:32.921Z,36.08
2023-04-12T08:35:36.052Z,36.42
2023-04-12T08:38:45.733Z,36.24
2023-04-12T08:41:50.642Z,35.96
2023-04-12T08:44:53.924Z,36.31
2023-04-12T08:47:57.730Z,36.23
2023-04-12T08:51:02.112Z,35.99
2023-04-12T08:54:08.043Z,36.08
2023-04-12T08:57:11.318Z,36.08
2023-04-12T09:00:16.944Z,35.88
2023-04-12T09:03:20.144Z,35.65
2023-04-12T09:06:23.321Z,35.75
2023-04-12T09:09:46.058Z,35.47
2023-04-12T09:12:50.977Z,35.79
2023-04-12T09:15:55.549Z,35.72
2023-04-12T09:19:02.569Z,35.50
2023-04-12T09:22:05.810Z,35.73
2023-04-12T09:25:10.769Z,35.62
2023-04-12T09:28:26.091Z,35.69
2023-04-12T09:31:29.392Z,35.74
2023-04-12T09:34:33.094Z,35.29
2023-04-12T09:37:36.225Z,35.51
2023-04-12T09:40:41.223Z,35.64
2023-04-12T09:43:44.706Z,35.34
2023-04-12T09:46:53.157Z,35.41
2023-04-12T09:49:56.506Z,35.57
2023-04-12T09:53:00.726Z,35.59
2023-04-12T09:56:07.188Z,35.62
2023-04-12T09:59:10.405Z,35.30
2023-04-12T10:02:18.687Z,35.49
2023-04-12T10:05:23.448Z,35.78
2023-04-12T10:08:27.611Z,35.96
2023-04-12T10:11:34.004Z,35.64
2023-04-12T10:14:37.445Z,35.65
2023-04-12T10:17:43.293Z,35.86
2023-04-12T10:20:47.575Z,35.77
2023-04-12T10:23:50.984Z,35.48
2023-04-12T10:26:58.739Z,35.82
2023-04-12T10:30:23.738Z,35.69
2023-04-12T10:33:28.387Z,35.93
2023-04-12T10:36:53.531Z,35.53
2023-04-12T10:39:56.911Z,35.69
2023-04-12T10:43:28.970Z,35.46
2023-04-12T10:46:53.746Z,35.85
2023-04-12T10:50:24.572Z,35.57
2023-04-12T10:53:27.811Z,35.40
2023-04-12T10:56:41.153Z,35.87
2023-04-12T10:59:57.140Z,35.69
2023-04-12T11:03:12.858Z,35.63
2023-04-12T11:06:27.254Z,35.55
2023-04-12T11:09:41.256Z,35.87
2023-04-12T11:12:51.119Z,35.88
2023-04-12T11:15:57.723Z,35.91
2023-04-12T11:19:01.777Z,35.66
2023-04-12T11:22:05.729Z,35.90
2023-04-12T11:25:09.578Z,35.67
2023-04-12T11:28:27.771Z,35.60
2023-04-12T11:31:34.354Z,35.92
2023-04-12T11:34:38.243Z,35.68
2023-04-12T11:37:41.614Z,35.93
2023-04-12T11:40:44.752Z,36.07
2023-04-12T11:43:49.198Z,36.07
2023-04-12T11:46:53.701Z,35.69
2023-04-12T11:49:57.996Z,35.47
2023-04-12T11:53:13.612Z,35.63
2023-04-12T11:56:16.735Z,35.70
2023-04-12T11:59:19.720Z,35.74
2023-04-12T12:02:25.423Z,35.80
2023-04-12T12:05:29.926Z,35.72
2023-04-12T12:08:33.628Z,35.69
2023-04-12T12:11:36.812Z,35.69
2023-04-12T12:14:40.183Z,35.89
2023-04-12T12:17:44.622Z,35.85
2023-04-12T12:20:51.020Z,35.93
2023-04-12T12:23:54.627Z,35.79
2023-04-12T12:26:59.030Z,36.08
2023-04-12T12:30:04.481Z,35.95
2023-04-12T12:33:09.043Z,35.71
2023-04-12T12:36:12.345Z,35.78
2023-04-12T12:39:15.611Z,35.97
2023-04-12T12:42:18.659Z,35.91
2023-04-12T12:45:23.428Z,35.75
2023-04-12T12:48:28.267Z,36.11
2023-04-12T12:51:31.679Z,35.78
2023-04-12T12:54:40.189Z,36.15
2023-04-12T12:57:51.936Z,36.10
2023-04-12T13:01:05.793Z,35.86
2023-04-12T13:04:10.588Z,35.94
2023-04-12T13:07:13.712Z,35.80
2023-04-12T13:10:16.829Z,35.93
2023-04-12T13:13:20.226Z,35.72
2023-04-12T13:16:25.414Z,36.05
2023-04-12T13:19:31.389Z,35.97
2023-04-12T13:22:34.595Z,35.94
2023-04-12T13:25:37.795Z,35.93
2023-04-12T13:28:41.159Z,35.94
2023-04-12T13:31:44.435Z,36.08
2023-04-12T13:34:49.207Z,36.04
2023-04-12T13:37:52.267Z,36.00
2023-04-12T13:40:56.501Z,35.82
2023-04-12T13:43:59.509Z,35.98
2023-04-12T13:47:02.507Z,36.02
2023-04-12T13:50:08.342Z,35.94
2023-04-12T13:53:11.390Z,35.70
2023-04-12T13:56:16.047Z,35.75
2023-04-12T13:59:19.141Z,35.72
2023-04-12T14:02:22.314Z,35.89
2023-04-12T14:05:26.942Z,35.82
2023-04-12T14:08:30.334Z,35.95
2023-04-12T14:11:47.174Z,35.96
2023-04-12T14:14:50.480Z,35.92
2023-04-12T14:17:53.626Z,35.87
2023-04-12T14:20:59.391Z,36.14
2023-04-12T14:24:02.394Z,35.91
2023-04-12T14:27:05.645Z,34.88
2023-04-12T14:30:12.398Z,33.79
2023-04-12T14:33:15.565Z,33.86
2023-04-12T14:36:20.120Z,31.98
2023-04-12T14:39:24.266Z,32.08
2023-04-12T14:42:27.358Z,32.64
2023-04-12T14:45:30.495Z,31.81
2023-04-12T14:48:33.587Z,31.75
2023-04-12T14:51:37.996Z,32.10
2023-04-12T14:54:41.463Z,31.90
2023-04-12T14:57:44.752Z,32.23
2023-04-12T15:00:49.295Z,31.51
2023-04-12T15:03:55.156Z,32.26
2023-04-12T15:07:00.199Z,31.87
2023-04-12T15:10:04.977Z,31.92
2023-04-12T15:13:08.060Z,32.29
2023-04-12T15:16:12.553Z,32.13
2023-04-12T15:19:21.223Z,31.66
2023-04-12T15:22:27.823Z,31.72
2023-04-12T15:25:31.187Z,31.73
2023-04-12T15:28:34.449Z,32.40
2023-04-12T15:31:37.621Z,32.91
2023-04-12T15:34:40.681Z,33.54
2023-04-12T15:37:45.369Z,33.82
2023-04-12T15:40:54.740Z,34.15
2023-04-12T15:43:58.006Z,34.34
2023-04-12T15:47:10.822Z,34.01
2023-04-12T15:50:14.318Z,33.49
2023-04-12T15:53:21.351Z,32.99
2023-04-12T15:56:25.632Z,33.05
2023-04-12T15:59:30.049Z,32.70
2023-04-12T16:02:34.003Z,32.58
2023-04-12T16:05:37.316Z,32.51
2023-04-12T16:08:41.976Z,32.11
2023-04-12T16:11:46.611Z,32.16
2023-04-12T16:14:51.359Z,32.40
2023-04-12T16:17:56.279Z,32.85
2023-04-12T16:20:59.918Z,33.33
2023-04-12T16:24:04.910Z,33.82
2023-04-12T16:27:08.432Z,33.75
2023-04-12T16:30:12.901Z,33.49
2023-04-12T16:33:15.897Z,33.13
2023-04-12T16:36:19.607Z,32.46
2023-04-12T16:39:24.032Z,32.38
2023-04-12T16:42:31.831Z,32.26
2023-04-12T16:45:35.004Z,32.09
2023-04-12T16:48:41.230Z,31.93
2023-04-12T16:51:44.351Z,31.52
2023-04-12T16:54:48.746Z,31.37
2023-04-12T16:57:53.830Z,31.41
2023-04-12T17:00:57.954Z,31.50
2023-04-12T17:04:01.509Z,31.41
2023-04-12T17:07:05.276Z,31.87
2023-04-12T17:10:10.883Z,31.24
2023-04-12T17:13:19.437Z,31.29
2023-04-12T17:16:23.526Z,31.52
2023-04-12T17:19:27.177Z,31.50
2023-04-12T17:22:30.234Z,31.24
2023-04-12T17:25:35.115Z,30.77
2023-04-12T17:28:39.751Z,30.82
2023-04-12T17:31:42.861Z,30.18
2023-04-12T17:34:45.945Z,30.11
2023-04-12T17:37:49.231Z,29.83
2023-04-12T17:40:54.133Z,29.60
2023-04-12T17:43:57.711Z,29.36
2023-04-12T17:47:00.832Z,29.58
2023-04-12T17:50:03.878Z,29.92
2023-04-12T17:53:06.904Z,29.97
2023-04-12T17:56:11.363Z,30.16
2023-04-12T17:59:14.580Z,30.45
2023-04-12T18:02:18.109Z,30.31
2023-04-12T18:05:21.380Z,30.67
2023-04-12T18:08:25.151Z,30.82
2023-04-12T18:11:29.868Z,31.19
2023-04-12T18:17:35.952Z,31.42
2023-04-12T18:20:38.986Z,31.54
2023-04-12T18:23:42.067Z,31.80
2023-04-12T18:26:47.161Z,31.82
2023-04-12T18:29:50.244Z,31.91
2023-04-12T18:32:53.425Z,31.78
2023-04-12T18:35:56.584Z,32.18
2023-04-12T18:38:59.787Z,31.96
2023-04-12T18:42:04.254Z,32.35
2023-04-12T18:45:08.948Z,32.10
2023-04-12T18:48:12.259Z,32.33
2023-04-12T18:51:15.644Z,32.09
2023-04-12T18:54:18.716Z,32.38
2023-04-12T18:57:23.198Z,32.21
2023-04-12T19:00:26.506Z,32.41
2023-04-12T19:03:29.581Z,32.27
2023-04-12T19:06:33.128Z,32.45
2023-04-12T19:09:36.141Z,32.62
2023-04-12T19:12:40.676Z,32.66
2023-04-12T19:15:43.901Z,32.65
2023-04-12T19:18:47.007Z,32.75
2023-04-12T19:21:50.111Z,32.63
2023-04-12T19:24:53.874Z,32.71
2023-04-12T19:27:59.868Z,33.01
2023-04-12T19:31:06.031Z,32.72
2023-04-12T19:34:11.751Z,32.90
2023-04-12T19:37:14.726Z,32.84
2023-04-12T19:40:17.775Z,32.96
2023-04-12T19:43:22.183Z,33.10
2023-04-12T19:46:25.267Z,32.93
2023-04-12T19:49:28.856Z,33.16
2023-04-12T19:52:31.924Z,33.30
2023-04-12T19:55:35.293Z,33.16
2023-04-12T19:58:40.942Z,33.20
2023-04-12T20:01:48.892Z,33.17
2023-04-12T20:04:52.480Z,33.24
2023-04-12T20:07:56.217Z,33.21
2023-04-12T20:10:59.440Z,33.65
2023-04-12T20:14:03.893Z,33.20
2023-04-12T20:17:07.135Z,33.48
2023-04-12T20:20:12.808Z,33.17
2023-04-12T20:23:16.172Z,33.38
2023-04-12T20:26:20.261Z,33.30
2023-04-12T20:29:24.723Z,33.15
2023-04-12T20:32:27.748Z,33.30
2023-04-12T20:35:31.012Z,33.10
2023-04-12T20:38:36.018Z,33.18
2023-04-12T20:41:39.264Z,33.29
2023-04-12T20:44:43.716Z,33.28
2023-04-12T20:47:46.710Z,33.03
2023-04-12T20:50:50.548Z,33.03
2023-04-12T20:53:53.627Z,33.02
2023-04-12T20:56:56.792Z,33.19
2023-04-12T21:00:01.528Z,33.14
2023-04-12T21:03:05.190Z,33.31
2023-04-12T21:06:11.003Z,33.02
2023-04-12T21:09:14.743Z,32.86
2023-04-12T21:12:18.259Z,32.93
2023-04-12T21:15:22.912Z,32.85
2023-04-12T21:18:26.030Z,33.10
2023-04-12T21:21:29.244Z,33.08
2023-04-12T21:24:37.656Z,33.09
2023-04-12T21:27:42.703Z,33.13
2023-04-12T21:30:49.346Z,33.08
2023-04-12T21:33:53.353Z,33.08
2023-04-12T21:36:57.424Z,33.10
2023-04-12T21:40:00.431Z,33.14
2023-04-12T21:43:03.555Z,33.06
2023-04-12T21:46:09.165Z,33.17
2023-04-12T21:49:12.353Z,32.99
2023-04-12T21:52:15.613Z,33.11
2023-04-12T21:55:19.112Z,32.98
2023-04-12T21:58:22.256Z,33.17
2023-04-12T22:01:27.309Z,33.18
2023-04-12T22:04:30.373Z,32.90
2023-04-12T22:07:33.720Z,32.99
2023-04-12T22:10:36.930Z,33.19
2023-04-12T22:13:41.805Z,33.02
2023-04-12T22:16:46.802Z,32.97
2023-04-12T22:19:50.213Z,33.04
2023-04-12T22:22:53.227Z,32.89
2023-04-12T22:25:58.516Z,33.14
2023-04-12T22:29:01.639Z,33.04
2023-04-12T22:32:06.510Z,32.84
2023-04-12T22:35:10.525Z,32.88
2023-04-12T22:38:14.844Z,32.86
2023-04-12T22:41:18.004Z,32.83
2023-04-12T22:44:22.192Z,32.64
2023-04-12T22:47:26.923Z,32.86
2023-04-12T22:50:30.052Z,33.02
2023-04-12T22:53:34.396Z,33.08
2023-04-12T22:56:42.146Z,32.69
2023-04-12T22:59:45.121Z,32.95
2023-04-12T23:02:50.430Z,32.76
2023-04-12T23:05:53.608Z,32.81
2023-04-12T23:09:00.169Z,32.90
2023-04-12T23:12:04.315Z,33.09
2023-04-12T23:15:09.032Z,32.76
2023-04-12T23:18:13.511Z,32.81
2023-04-12T23:21:16.557Z,32.95
2023-04-12T23:24:19.596Z,32.96
2023-04-12T23:27:22.812Z,32.95
2023-04-12T23:30:29.692Z,32.92
2023-04-12T23:33:34.477Z,33.07
2023-04-12T23:36:37.623Z,33.06
2023-04-12T23:39:40.623Z,33.03
2023-04-12T23:42:44.835Z,33.03
2023-04-12T23:45:48.036Z,33.10
2023-04-12T23:48:52.826Z,33.00
2023-04-12T23:51:55.877Z,33.19
2023-04-12T23:54:58.958Z,33.16
2023-04-12T23:58:01.938Z,33.02
